sensor_id;sensor_type;location;lat;lon;timestamp;P1;durP1;ratioP1;P2;durP2;ratioP2
39896;SDS011;25567;48.276;14.242;2023-03-14T00:01:25;7.47;;;2.75;;
39896;SDS011;25567;48.276;14.242;2023-03-14T00:03:52;10.00;;;3.53;;
39896;SDS011;25567;48.276;14.242;2023-03-14T00:06:19;10.05;;;3.42;;
39896;SDS011;25567;48.276;14.242;2023-03-14T00:08:46;9.60;;;3.97;;
39896;SDS011;25567;48.276;14.242;2023-03-14T00:11:15;10.40;;;3.20;;
39896;SDS011;25567;48.276;14.242;2023-03-14T00:13:46;9.65;;;3.78;;
39896;SDS011;25567;48.276;14.242;2023-03-14T00:16:14;10.02;;;3.83;;
39896;SDS011;25567;48.276;14.242;2023-03-14T00:18:40;13.48;;;3.78;;
39896;SDS011;25567;48.276;14.242;2023-03-14T00:21:08;10.25;;;3.45;;
39896;SDS011;25567;48.276;14.242;2023-03-14T00:23:39;8.07;;;3.42;;
39896;SDS011;25567;48.276;14.242;2023-03-14T00:26:08;11.30;;;3.67;;
39896;SDS011;25567;48.276;14.242;2023-03-14T00:28:37;9.65;;;3.70;;
39896;SDS011;25567;48.276;14.242;2023-03-14T00:31:05;9.63;;;3.92;;
39896;SDS011;25567;48.276;14.242;2023-03-14T00:33:33;8.00;;;3.42;;
39896;SDS011;25567;48.276;14.242;2023-03-14T00:36:01;9.65;;;4.18;;
39896;SDS011;25567;48.276;14.242;2023-03-14T00:38:32;9.05;;;3.80;;
39896;SDS011;25567;48.276;14.242;2023-03-14T00:40:59;11.48;;;3.65;;
39896;SDS011;25567;48.276;14.242;2023-03-14T00:43:28;7.57;;;3.38;;
39896;SDS011;25567;48.276;14.242;2023-03-14T00:45:55;12.95;;;3.70;;
39896;SDS011;25567;48.276;14.242;2023-03-14T00:48:23;9.05;;;2.85;;
39896;SDS011;25567;48.276;14.242;2023-03-14T00:50:50;7.70;;;3.45;;
39896;SDS011;25567;48.276;14.242;2023-03-14T00:53:16;12.68;;;4.10;;
39896;SDS011;25567;48.276;14.242;2023-03-14T00:55:43;14.48;;;4.55;;
39896;SDS011;25567;48.276;14.242;2023-03-14T00:58:11;9.13;;;3.90;;
39896;SDS011;25567;48.276;14.242;2023-03-14T01:00:39;13.45;;;4.25;;
39896;SDS011;25567;48.276;14.242;2023-03-14T01:03:07;8.55;;;4.07;;
39896;SDS011;25567;48.276;14.242;2023-03-14T01:05:35;10.50;;;4.15;;
39896;SDS011;25567;48.276;14.242;2023-03-14T01:08:02;8.23;;;4.18;;
39896;SDS011;25567;48.276;14.242;2023-03-14T01:10:29;10.68;;;3.47;;
39896;SDS011;25567;48.276;14.242;2023-03-14T01:12:56;11.57;;;3.67;;
39896;SDS011;25567;48.276;14.242;2023-03-14T01:15:23;13.10;;;4.00;;
39896;SDS011;25567;48.276;14.242;2023-03-14T01:17:50;13.25;;;4.50;;
39896;SDS011;25567;48.276;14.242;2023-03-14T01:20:17;9.05;;;4.45;;
39896;SDS011;25567;48.276;14.242;2023-03-14T01:22:45;11.00;;;4.15;;
39896;SDS011;25567;48.276;14.242;2023-03-14T01:25:13;11.20;;;4.70;;
39896;SDS011;25567;48.276;14.242;2023-03-14T01:27:41;14.32;;;5.30;;
39896;SDS011;25567;48.276;14.242;2023-03-14T01:30:09;17.80;;;5.80;;
39896;SDS011;25567;48.276;14.242;2023-03-14T01:32:40;15.38;;;5.13;;
39896;SDS011;25567;48.276;14.242;2023-03-14T01:35:07;13.45;;;5.15;;
39896;SDS011;25567;48.276;14.242;2023-03-14T01:37:34;10.82;;;5.10;;
39896;SDS011;25567;48.276;14.242;2023-03-14T01:40:01;12.75;;;5.60;;
39896;SDS011;25567;48.276;14.242;2023-03-14T01:42:27;14.38;;;5.45;;
39896;SDS011;25567;48.276;14.242;2023-03-14T01:47:23;14.30;;;5.55;;
39896;SDS011;25567;48.276;14.242;2023-03-14T01:49:52;9.68;;;5.38;;
39896;SDS011;25567;48.276;14.242;2023-03-14T01:52:34;9.25;;;4.72;;
39896;SDS011;25567;48.276;14.242;2023-03-14T01:55:09;10.75;;;4.93;;
39896;SDS011;25567;48.276;14.242;2023-03-14T01:57:42;13.52;;;4.32;;
39896;SDS011;25567;48.276;14.242;2023-03-14T02:00:13;10.63;;;4.30;;
39896;SDS011;25567;48.276;14.242;2023-03-14T02:02:42;8.80;;;4.60;;
39896;SDS011;25567;48.276;14.242;2023-03-14T02:05:12;10.63;;;4.57;;
39896;SDS011;25567;48.276;14.242;2023-03-14T02:07:50;9.80;;;4.03;;
39896;SDS011;25567;48.276;14.242;2023-03-14T02:10:20;13.98;;;5.80;;
39896;SDS011;25567;48.276;14.242;2023-03-14T02:12:50;12.77;;;5.45;;
39896;SDS011;25567;48.276;14.242;2023-03-14T02:15:19;12.98;;;6.10;;
39896;SDS011;25567;48.276;14.242;2023-03-14T02:17:46;11.65;;;6.13;;
39896;SDS011;25567;48.276;14.242;2023-03-14T02:23:04;14.27;;;6.18;;
39896;SDS011;25567;48.276;14.242;2023-03-14T02:25:39;14.80;;;6.00;;
39896;SDS011;25567;48.276;14.242;2023-03-14T02:28:12;11.80;;;5.75;;
39896;SDS011;25567;48.276;14.242;2023-03-14T02:30:39;17.67;;;6.28;;
39896;SDS011;25567;48.276;14.242;2023-03-14T02:33:08;15.68;;;6.03;;
39896;SDS011;25567;48.276;14.242;2023-03-14T02:35:46;15.63;;;5.97;;
39896;SDS011;25567;48.276;14.242;2023-03-14T02:38:29;13.35;;;6.20;;
39896;SDS011;25567;48.276;14.242;2023-03-14T02:41:00;11.63;;;5.30;;
39896;SDS011;25567;48.276;14.242;2023-03-14T02:43:27;15.63;;;6.18;;
39896;SDS011;25567;48.276;14.242;2023-03-14T02:45:54;12.68;;;5.70;;
39896;SDS011;25567;48.276;14.242;2023-03-14T02:48:22;12.88;;;5.80;;
39896;SDS011;25567;48.276;14.242;2023-03-14T02:50:54;13.68;;;5.95;;
39896;SDS011;25567;48.276;14.242;2023-03-14T02:53:25;12.48;;;6.00;;
39896;SDS011;25567;48.276;14.242;2023-03-14T02:55:55;14.27;;;5.78;;
39896;SDS011;25567;48.276;14.242;2023-03-14T02:58:22;12.23;;;5.10;;
39896;SDS011;25567;48.276;14.242;2023-03-14T03:00:49;13.05;;;5.65;;
39896;SDS011;25567;48.276;14.242;2023-03-14T03:03:15;13.20;;;6.40;;
39896;SDS011;25567;48.276;14.242;2023-03-14T03:05:42;11.27;;;5.97;;
39896;SDS011;25567;48.276;14.242;2023-03-14T03:08:10;9.32;;;4.75;;
39896;SDS011;25567;48.276;14.242;2023-03-14T03:10:37;13.20;;;5.40;;
39896;SDS011;25567;48.276;14.242;2023-03-14T03:13:03;12.43;;;5.50;;
39896;SDS011;25567;48.276;14.242;2023-03-14T03:15:30;14.60;;;5.20;;
39896;SDS011;25567;48.276;14.242;2023-03-14T03:17:57;14.60;;;4.82;;
39896;SDS011;25567;48.276;14.242;2023-03-14T03:20:24;9.45;;;5.13;;
39896;SDS011;25567;48.276;14.242;2023-03-14T03:22:50;11.15;;;4.93;;
39896;SDS011;25567;48.276;14.242;2023-03-14T03:25:17;12.35;;;4.90;;
39896;SDS011;25567;48.276;14.242;2023-03-14T03:27:44;15.30;;;4.85;;
39896;SDS011;25567;48.276;14.242;2023-03-14T03:30:10;10.75;;;4.75;;
39896;SDS011;25567;48.276;14.242;2023-03-14T03:32:37;12.15;;;4.97;;
39896;SDS011;25567;48.276;14.242;2023-03-14T03:35:04;10.90;;;4.72;;
39896;SDS011;25567;48.276;14.242;2023-03-14T03:37:32;14.80;;;5.20;;
39896;SDS011;25567;48.276;14.242;2023-03-14T03:39:59;13.18;;;4.80;;
39896;SDS011;25567;48.276;14.242;2023-03-14T03:42:27;12.32;;;5.43;;
39896;SDS011;25567;48.276;14.242;2023-03-14T03:44:54;11.93;;;4.72;;
39896;SDS011;25567;48.276;14.242;2023-03-14T03:47:21;9.57;;;4.97;;
39896;SDS011;25567;48.276;14.242;2023-03-14T03:49:48;11.52;;;5.05;;
39896;SDS011;25567;48.276;14.242;2023-03-14T03:52:14;10.63;;;5.15;;
39896;SDS011;25567;48.276;14.242;2023-03-14T03:54:41;15.27;;;5.28;;
39896;SDS011;25567;48.276;14.242;2023-03-14T03:57:08;14.85;;;6.00;;
39896;SDS011;25567;48.276;14.242;2023-03-14T03:59:34;12.57;;;5.25;;
39896;SDS011;25567;48.276;14.242;2023-03-14T04:02:01;14.35;;;5.28;;
39896;SDS011;25567;48.276;14.242;2023-03-14T04:04:28;11.38;;;5.30;;
39896;SDS011;25567;48.276;14.242;2023-03-14T04:06:55;12.30;;;5.65;;
39896;SDS011;25567;48.276;14.242;2023-03-14T04:09:21;10.73;;;5.47;;
39896;SDS011;25567;48.276;14.242;2023-03-14T04:11:48;12.50;;;5.00;;
39896;SDS011;25567;48.276;14.242;2023-03-14T04:14:15;11.98;;;5.43;;
39896;SDS011;25567;48.276;14.242;2023-03-14T04:16:42;14.15;;;5.90;;
39896;SDS011;25567;48.276;14.242;2023-03-14T04:19:08;15.52;;;5.50;;
39896;SDS011;25567;48.276;14.242;2023-03-14T04:21:35;12.82;;;5.38;;
39896;SDS011;25567;48.276;14.242;2023-03-14T04:24:10;15.27;;;5.15;;
39896;SDS011;25567;48.276;14.242;2023-03-14T04:26:37;10.30;;;4.68;;
39896;SDS011;25567;48.276;14.242;2023-03-14T04:29:04;11.32;;;4.57;;
39896;SDS011;25567;48.276;14.242;2023-03-14T04:31:31;8.75;;;5.20;;
39896;SDS011;25567;48.276;14.242;2023-03-14T04:33:57;11.32;;;4.45;;
39896;SDS011;25567;48.276;14.242;2023-03-14T04:36:24;11.18;;;5.32;;
39896;SDS011;25567;48.276;14.242;2023-03-14T04:38:51;11.00;;;5.60;;
39896;SDS011;25567;48.276;14.242;2023-03-14T04:41:17;9.77;;;5.38;;
39896;SDS011;25567;48.276;14.242;2023-03-14T04:43:44;12.05;;;4.80;;
39896;SDS011;25567;48.276;14.242;2023-03-14T04:46:11;9.10;;;4.35;;
39896;SDS011;25567;48.276;14.242;2023-03-14T04:48:37;9.80;;;4.75;;
39896;SDS011;25567;48.276;14.242;2023-03-14T04:51:04;12.32;;;5.22;;
39896;SDS011;25567;48.276;14.242;2023-03-14T04:53:31;8.68;;;4.40;;
39896;SDS011;25567;48.276;14.242;2023-03-14T04:55:58;14.55;;;4.88;;
39896;SDS011;25567;48.276;14.242;2023-03-14T04:58:25;9.23;;;4.32;;
39896;SDS011;25567;48.276;14.242;2023-03-14T05:00:52;17.65;;;5.50;;
39896;SDS011;25567;48.276;14.242;2023-03-14T05:03:18;13.25;;;4.97;;
39896;SDS011;25567;48.276;14.242;2023-03-14T05:05:45;15.30;;;5.28;;
39896;SDS011;25567;48.276;14.242;2023-03-14T05:08:12;15.45;;;6.60;;
39896;SDS011;25567;48.276;14.242;2023-03-14T05:10:39;12.38;;;6.10;;
39896;SDS011;25567;48.276;14.242;2023-03-14T05:13:06;14.95;;;6.22;;
39896;SDS011;25567;48.276;14.242;2023-03-14T05:15:32;13.50;;;5.78;;
39896;SDS011;25567;48.276;14.242;2023-03-14T05:17:59;12.00;;;5.75;;
39896;SDS011;25567;48.276;14.242;2023-03-14T05:20:26;15.82;;;6.15;;
39896;SDS011;25567;48.276;14.242;2023-03-14T05:22:53;10.93;;;5.60;;
39896;SDS011;25567;48.276;14.242;2023-03-14T05:25:20;15.63;;;6.13;;
39896;SDS011;25567;48.276;14.242;2023-03-14T05:27:46;15.63;;;6.35;;
39896;SDS011;25567;48.276;14.242;2023-03-14T05:30:13;12.23;;;5.85;;
39896;SDS011;25567;48.276;14.242;2023-03-14T05:32:43;14.98;;;6.50;;
39896;SDS011;25567;48.276;14.242;2023-03-14T05:35:10;19.23;;;6.78;;
39896;SDS011;25567;48.276;14.242;2023-03-14T05:37:37;22.80;;;7.38;;
39896;SDS011;25567;48.276;14.242;2023-03-14T05:40:04;18.35;;;6.75;;
39896;SDS011;25567;48.276;14.242;2023-03-14T05:42:32;13.00;;;6.88;;
39896;SDS011;25567;48.276;14.242;2023-03-14T05:44:59;16.85;;;7.10;;
39896;SDS011;25567;48.276;14.242;2023-03-14T05:47:26;18.27;;;7.38;;
39896;SDS011;25567;48.276;14.242;2023-03-14T05:49:53;18.77;;;8.20;;
39896;SDS011;25567;48.276;14.242;2023-03-14T05:52:19;17.95;;;8.20;;
39896;SDS011;25567;48.276;14.242;2023-03-14T05:54:46;20.00;;;8.65;;
39896;SDS011;25567;48.276;14.242;2023-03-14T05:57:13;17.88;;;8.43;;
39896;SDS011;25567;48.276;14.242;2023-03-14T05:59:40;14.93;;;7.38;;
39896;SDS011;25567;48.276;14.242;2023-03-14T06:02:06;13.80;;;7.65;;
39896;SDS011;25567;48.276;14.242;2023-03-14T06:04:33;15.15;;;8.02;;
39896;SDS011;25567;48.276;14.242;2023-03-14T06:07:00;14.80;;;8.05;;
39896;SDS011;25567;48.276;14.242;2023-03-14T06:09:27;14.32;;;7.45;;
39896;SDS011;25567;48.276;14.242;2023-03-14T06:11:53;20.10;;;7.78;;
39896;SDS011;25567;48.276;14.242;2023-03-14T06:14:20;17.27;;;7.72;;
39896;SDS011;25567;48.276;14.242;2023-03-14T06:16:47;21.95;;;8.68;;
39896;SDS011;25567;48.276;14.242;2023-03-14T06:19:15;20.88;;;9.30;;
39896;SDS011;25567;48.276;14.242;2023-03-14T06:21:42;15.57;;;7.68;;
39896;SDS011;25567;48.276;14.242;2023-03-14T06:24:09;20.42;;;8.98;;
39896;SDS011;25567;48.276;14.242;2023-03-14T06:26:36;16.77;;;7.93;;
39896;SDS011;25567;48.276;14.242;2023-03-14T06:29:03;18.30;;;8.52;;
39896;SDS011;25567;48.276;14.242;2023-03-14T06:31:31;19.77;;;8.35;;
39896;SDS011;25567;48.276;14.242;2023-03-14T06:33:58;18.65;;;9.45;;
39896;SDS011;25567;48.276;14.242;2023-03-14T06:36:25;22.00;;;8.90;;
39896;SDS011;25567;48.276;14.242;2023-03-14T06:38:52;19.58;;;9.20;;
39896;SDS011;25567;48.276;14.242;2023-03-14T06:41:19;21.30;;;8.63;;
39896;SDS011;25567;48.276;14.242;2023-03-14T06:43:46;20.40;;;8.52;;
39896;SDS011;25567;48.276;14.242;2023-03-14T06:46:12;20.63;;;8.75;;
39896;SDS011;25567;48.276;14.242;2023-03-14T06:48:39;21.00;;;8.93;;
39896;SDS011;25567;48.276;14.242;2023-03-14T06:51:06;25.20;;;9.75;;
39896;SDS011;25567;48.276;14.242;2023-03-14T06:53:33;19.75;;;8.40;;
39896;SDS011;25567;48.276;14.242;2023-03-14T06:55:59;20.42;;;9.70;;
39896;SDS011;25567;48.276;14.242;2023-03-14T06:58:26;21.10;;;9.68;;
39896;SDS011;25567;48.276;14.242;2023-03-14T07:00:53;19.88;;;8.10;;
39896;SDS011;25567;48.276;14.242;2023-03-14T07:03:21;22.58;;;8.32;;
39896;SDS011;25567;48.276;14.242;2023-03-14T07:05:48;14.55;;;8.32;;
39896;SDS011;25567;48.276;14.242;2023-03-14T07:08:15;22.67;;;9.00;;
39896;SDS011;25567;48.276;14.242;2023-03-14T07:10:41;19.73;;;7.40;;
39896;SDS011;25567;48.276;14.242;2023-03-14T07:13:08;18.42;;;7.85;;
39896;SDS011;25567;48.276;14.242;2023-03-14T07:15:35;24.17;;;7.43;;
39896;SDS011;25567;48.276;14.242;2023-03-14T07:18:01;17.52;;;6.50;;
39896;SDS011;25567;48.276;14.242;2023-03-14T07:20:28;21.10;;;7.00;;
39896;SDS011;25567;48.276;14.242;2023-03-14T07:22:58;16.80;;;7.00;;
39896;SDS011;25567;48.276;14.242;2023-03-14T07:25:26;18.85;;;7.97;;
39896;SDS011;25567;48.276;14.242;2023-03-14T07:27:53;17.17;;;7.93;;
39896;SDS011;25567;48.276;14.242;2023-03-14T07:30:19;14.45;;;7.40;;
39896;SDS011;25567;48.276;14.242;2023-03-14T07:32:46;19.77;;;8.35;;
39896;SDS011;25567;48.276;14.242;2023-03-14T07:35:13;27.40;;;10.57;;
39896;SDS011;25567;48.276;14.242;2023-03-14T07:37:40;12.57;;;5.72;;
39896;SDS011;25567;48.276;14.242;2023-03-14T07:40:06;12.63;;;4.32;;
39896;SDS011;25567;48.276;14.242;2023-03-14T07:42:34;8.27;;;4.00;;
39896;SDS011;25567;48.276;14.242;2023-03-14T07:45:00;8.73;;;3.65;;
39896;SDS011;25567;48.276;14.242;2023-03-14T07:47:27;7.78;;;2.35;;
39896;SDS011;25567;48.276;14.242;2023-03-14T07:49:54;2.22;;;1.40;;
39896;SDS011;25567;48.276;14.242;2023-03-14T07:52:20;2.38;;;1.35;;
39896;SDS011;25567;48.276;14.242;2023-03-14T07:54:47;5.95;;;1.33;;
39896;SDS011;25567;48.276;14.242;2023-03-14T07:57:14;2.97;;;1.25;;
39896;SDS011;25567;48.276;14.242;2023-03-14T07:59:41;7.28;;;1.70;;
39896;SDS011;25567;48.276;14.242;2023-03-14T08:02:09;2.50;;;1.23;;
39896;SDS011;25567;48.276;14.242;2023-03-14T08:04:38;2.80;;;1.33;;
39896;SDS011;25567;48.276;14.242;2023-03-14T08:07:05;4.38;;;1.33;;
39896;SDS011;25567;48.276;14.242;2023-03-14T08:09:32;3.35;;;1.02;;
39896;SDS011;25567;48.276;14.242;2023-03-14T08:11:59;3.95;;;1.33;;
39896;SDS011;25567;48.276;14.242;2023-03-14T08:14:25;5.57;;;1.33;;
39896;SDS011;25567;48.276;14.242;2023-03-14T08:16:52;5.97;;;1.60;;
39896;SDS011;25567;48.276;14.242;2023-03-14T08:19:19;6.00;;;1.48;;
39896;SDS011;25567;48.276;14.242;2023-03-14T08:21:45;2.88;;;1.10;;
39896;SDS011;25567;48.276;14.242;2023-03-14T08:24:12;3.80;;;1.77;;
39896;SDS011;25567;48.276;14.242;2023-03-14T08:26:39;2.15;;;1.10;;
39896;SDS011;25567;48.276;14.242;2023-03-14T08:29:06;7.93;;;1.48;;
39896;SDS011;25567;48.276;14.242;2023-03-14T08:31:34;6.47;;;1.20;;
39896;SDS011;25567;48.276;14.242;2023-03-14T08:34:02;2.00;;;1.00;;
39896;SDS011;25567;48.276;14.242;2023-03-14T08:36:29;2.20;;;0.82;;
39896;SDS011;25567;48.276;14.242;2023-03-14T08:38:57;3.25;;;0.57;;
39896;SDS011;25567;48.276;14.242;2023-03-14T08:41:24;2.40;;;0.60;;
39896;SDS011;25567;48.276;14.242;2023-03-14T08:43:50;4.22;;;0.95;;
39896;SDS011;25567;48.276;14.242;2023-03-14T08:46:17;3.72;;;0.60;;
39896;SDS011;25567;48.276;14.242;2023-03-14T08:48:44;3.95;;;0.95;;
39896;SDS011;25567;48.276;14.242;2023-03-14T08:51:11;2.72;;;0.70;;
39896;SDS011;25567;48.276;14.242;2023-03-14T08:53:40;3.42;;;0.80;;
39896;SDS011;25567;48.276;14.242;2023-03-14T08:56:07;1.73;;;0.60;;
39896;SDS011;25567;48.276;14.242;2023-03-14T08:58:36;4.53;;;0.80;;
39896;SDS011;25567;48.276;14.242;2023-03-14T09:01:05;2.67;;;0.50;;
39896;SDS011;25567;48.276;14.242;2023-03-14T09:03:32;1.63;;;0.50;;
39896;SDS011;25567;48.276;14.242;2023-03-14T09:06:07;4.85;;;0.70;;
39896;SDS011;25567;48.276;14.242;2023-03-14T09:08:35;2.70;;;0.57;;
39896;SDS011;25567;48.276;14.242;2023-03-14T09:11:06;1.98;;;0.60;;
39896;SDS011;25567;48.276;14.242;2023-03-14T09:13:35;4.78;;;0.55;;
39896;SDS011;25567;48.276;14.242;2023-03-14T09:16:02;4.38;;;0.80;;
39896;SDS011;25567;48.276;14.242;2023-03-14T09:18:29;2.90;;;0.98;;
39896;SDS011;25567;48.276;14.242;2023-03-14T09:20:56;3.75;;;0.65;;
39896;SDS011;25567;48.276;14.242;2023-03-14T09:23:23;4.20;;;0.90;;
39896;SDS011;25567;48.276;14.242;2023-03-14T09:25:54;3.80;;;0.95;;
39896;SDS011;25567;48.276;14.242;2023-03-14T09:28:22;3.33;;;0.73;;
39896;SDS011;25567;48.276;14.242;2023-03-14T09:30:48;4.35;;;0.80;;
39896;SDS011;25567;48.276;14.242;2023-03-14T09:33:19;3.97;;;0.43;;
39896;SDS011;25567;48.276;14.242;2023-03-14T09:35:45;3.20;;;0.68;;
39896;SDS011;25567;48.276;14.242;2023-03-14T09:38:12;6.32;;;0.82;;
39896;SDS011;25567;48.276;14.242;2023-03-14T09:40:39;4.55;;;0.50;;
39896;SDS011;25567;48.276;14.242;2023-03-14T09:43:09;2.80;;;0.50;;
39896;SDS011;25567;48.276;14.242;2023-03-14T09:45:40;5.50;;;1.20;;
39896;SDS011;25567;48.276;14.242;2023-03-14T09:48:12;4.88;;;0.60;;
39896;SDS011;25567;48.276;14.242;2023-03-14T09:50:44;5.38;;;0.77;;
39896;SDS011;25567;48.276;14.242;2023-03-14T09:53:17;1.83;;;0.47;;
39896;SDS011;25567;48.276;14.242;2023-03-14T09:55:46;0.80;;;0.30;;
39896;SDS011;25567;48.276;14.242;2023-03-14T09:58:18;1.98;;;0.80;;
39896;SDS011;25567;48.276;14.242;2023-03-14T10:00:47;0.98;;;0.63;;
39896;SDS011;25567;48.276;14.242;2023-03-14T10:05:49;2.25;;;0.60;;
39896;SDS011;25567;48.276;14.242;2023-03-14T10:08:16;2.63;;;0.40;;
39896;SDS011;25567;48.276;14.242;2023-03-14T10:10:42;1.17;;;0.50;;
39896;SDS011;25567;48.276;14.242;2023-03-14T10:15:51;2.33;;;0.50;;
39896;SDS011;25567;48.276;14.242;2023-03-14T10:18:21;1.67;;;0.57;;
39896;SDS011;25567;48.276;14.242;2023-03-14T10:23:44;2.05;;;0.82;;
39896;SDS011;25567;48.276;14.242;2023-03-14T10:26:15;3.88;;;0.77;;
39896;SDS011;25567;48.276;14.242;2023-03-14T10:28:45;2.40;;;0.70;;
39896;SDS011;25567;48.276;14.242;2023-03-14T10:31:14;3.10;;;0.77;;
39896;SDS011;25567;48.276;14.242;2023-03-14T10:33:41;1.50;;;0.55;;
39896;SDS011;25567;48.276;14.242;2023-03-14T10:44:20;0.85;;;0.38;;
39896;SDS011;25567;48.276;14.242;2023-03-14T10:46:58;0.75;;;0.30;;
39896;SDS011;25567;48.276;14.242;2023-03-14T10:49:29;2.13;;;0.50;;
39896;SDS011;25567;48.276;14.242;2023-03-14T10:52:00;2.28;;;0.55;;
39896;SDS011;25567;48.276;14.242;2023-03-14T10:54:38;0.68;;;0.40;;
39896;SDS011;25567;48.276;14.242;2023-03-14T10:57:05;0.75;;;0.52;;
39896;SDS011;25567;48.276;14.242;2023-03-14T10:59:36;0.85;;;0.52;;
39896;SDS011;25567;48.276;14.242;2023-03-14T11:07:44;1.20;;;0.35;;
39896;SDS011;25567;48.276;14.242;2023-03-14T11:10:15;0.98;;;0.50;;
39896;SDS011;25567;48.276;14.242;2023-03-14T11:18:22;1.05;;;0.40;;
39896;SDS011;25567;48.276;14.242;2023-03-14T11:26:48;1.40;;;0.20;;
39896;SDS011;25567;48.276;14.242;2023-03-14T11:29:31;1.08;;;0.50;;
39896;SDS011;25567;48.276;14.242;2023-03-14T11:32:12;0.98;;;0.30;;
39896;SDS011;25567;48.276;14.242;2023-03-14T11:34:50;1.20;;;0.47;;
39896;SDS011;25567;48.276;14.242;2023-03-14T11:37:29;0.85;;;0.40;;
39896;SDS011;25567;48.276;14.242;2023-03-14T11:40:04;1.25;;;0.40;;
39896;SDS011;25567;48.276;14.242;2023-03-14T11:42:33;0.90;;;0.50;;
39896;SDS011;25567;48.276;14.242;2023-03-14T11:45:00;0.80;;;0.32;;
39896;SDS011;25567;48.276;14.242;2023-03-14T11:47:29;1.15;;;0.45;;
39896;SDS011;25567;48.276;14.242;2023-03-14T11:52:35;0.20;;;0.20;;
39896;SDS011;25567;48.276;14.242;2023-03-14T11:55:17;0.30;;;0.30;;
39896;SDS011;25567;48.276;14.242;2023-03-14T11:57:53;0.85;;;0.40;;
39896;SDS011;25567;48.276;14.242;2023-03-14T12:00:24;2.38;;;0.77;;
39896;SDS011;25567;48.276;14.242;2023-03-14T12:03:01;1.48;;;0.20;;
39896;SDS011;25567;48.276;14.242;2023-03-14T12:05:39;0.32;;;0.15;;
39896;SDS011;25567;48.276;14.242;2023-03-14T12:13:17;0.40;;;0.20;;
39896;SDS011;25567;48.276;14.242;2023-03-14T12:15:47;0.25;;;0.20;;
39896;SDS011;25567;48.276;14.242;2023-03-14T12:18:21;0.98;;;0.30;;
39896;SDS011;25567;48.276;14.242;2023-03-14T12:20:54;0.22;;;0.20;;
39896;SDS011;25567;48.276;14.242;2023-03-14T12:23:23;0.57;;;0.10;;
39896;SDS011;25567;48.276;14.242;2023-03-14T12:26:06;0.50;;;0.25;;
39896;SDS011;25567;48.276;14.242;2023-03-14T12:28:44;1.15;;;0.32;;
39896;SDS011;25567;48.276;14.242;2023-03-14T12:36:52;1.10;;;0.20;;
39896;SDS011;25567;48.276;14.242;2023-03-14T12:42:13;0.75;;;0.10;;
39896;SDS011;25567;48.276;14.242;2023-03-14T12:44:52;1.83;;;0.20;;
39896;SDS011;25567;48.276;14.242;2023-03-14T12:49:46;1.25;;;0.17;;
39896;SDS011;25567;48.276;14.242;2023-03-14T12:52:16;0.25;;;0.20;;
39896;SDS011;25567;48.276;14.242;2023-03-14T13:00:17;0.30;;;0.15;;
39896;SDS011;25567;48.276;14.242;2023-03-14T13:02:47;0.57;;;0.20;;
39896;SDS011;25567;48.276;14.242;2023-03-14T13:05:19;1.48;;;0.10;;
39896;SDS011;25567;48.276;14.242;2023-03-14T13:08:04;0.98;;;0.13;;
39896;SDS011;25567;48.276;14.242;2023-03-14T13:10:42;1.13;;;0.40;;
39896;SDS011;25567;48.276;14.242;2023-03-14T13:13:21;0.30;;;0.20;;
39896;SDS011;25567;48.276;14.242;2023-03-14T13:15:54;0.82;;;0.20;;
39896;SDS011;25567;48.276;14.242;2023-03-14T13:21:10;0.40;;;0.30;;
39896;SDS011;25567;48.276;14.242;2023-03-14T13:23:38;0.40;;;0.20;;
39896;SDS011;25567;48.276;14.242;2023-03-14T13:26:09;2.83;;;0.32;;
39896;SDS011;25567;48.276;14.242;2023-03-14T13:28:40;1.48;;;0.30;;
39896;SDS011;25567;48.276;14.242;2023-03-14T13:31:12;0.35;;;0.20;;
39896;SDS011;25567;48.276;14.242;2023-03-14T13:33:59;0.35;;;0.20;;
39896;SDS011;25567;48.276;14.242;2023-03-14T13:36:28;1.60;;;0.10;;
39896;SDS011;25567;48.276;14.242;2023-03-14T13:38:55;4.38;;;0.28;;
39896;SDS011;25567;48.276;14.242;2023-03-14T13:41:24;0.47;;;0.20;;
39896;SDS011;25567;48.276;14.242;2023-03-14T13:43:51;1.85;;;0.45;;
39896;SDS011;25567;48.276;14.242;2023-03-14T13:46:27;3.40;;;0.22;;
39896;SDS011;25567;48.276;14.242;2023-03-14T13:48:57;0.30;;;0.10;;
39896;SDS011;25567;48.276;14.242;2023-03-14T13:51:28;1.77;;;0.30;;
39896;SDS011;25567;48.276;14.242;2023-03-14T13:53:58;2.95;;;0.40;;
39896;SDS011;25567;48.276;14.242;2023-03-14T13:56:28;1.02;;;0.30;;
39896;SDS011;25567;48.276;14.242;2023-03-14T13:58:57;0.25;;;0.20;;
39896;SDS011;25567;48.276;14.242;2023-03-14T14:03:55;1.13;;;0.50;;
39896;SDS011;25567;48.276;14.242;2023-03-14T14:09:18;1.33;;;0.40;;
39896;SDS011;25567;48.276;14.242;2023-03-14T14:17:10;1.67;;;0.45;;
39896;SDS011;25567;48.276;14.242;2023-03-14T14:19:39;0.80;;;0.25;;
39896;SDS011;25567;48.276;14.242;2023-03-14T14:22:09;1.65;;;0.40;;
39896;SDS011;25567;48.276;14.242;2023-03-14T14:24:37;2.58;;;0.28;;
39896;SDS011;25567;48.276;14.242;2023-03-14T14:29:57;0.70;;;0.30;;
39896;SDS011;25567;48.276;14.242;2023-03-14T14:32:26;0.40;;;0.10;;
39896;SDS011;25567;48.276;14.242;2023-03-14T14:37:21;0.20;;;0.10;;
39896;SDS011;25567;48.276;14.242;2023-03-14T14:39:54;0.60;;;0.28;;
39896;SDS011;25567;48.276;14.242;2023-03-14T14:42:26;1.25;;;0.30;;
39896;SDS011;25567;48.276;14.242;2023-03-14T14:44:55;0.28;;;0.20;;
39896;SDS011;25567;48.276;14.242;2023-03-14T14:47:24;0.20;;;0.20;;
39896;SDS011;25567;48.276;14.242;2023-03-14T14:49:53;0.38;;;0.20;;
39896;SDS011;25567;48.276;14.242;2023-03-14T14:52:22;0.55;;;0.10;;
39896;SDS011;25567;48.276;14.242;2023-03-14T14:55:11;0.68;;;0.30;;
39896;SDS011;25567;48.276;14.242;2023-03-14T14:57:50;1.80;;;0.35;;
39896;SDS011;25567;48.276;14.242;2023-03-14T15:00:20;0.30;;;0.20;;
39896;SDS011;25567;48.276;14.242;2023-03-14T15:02:49;0.40;;;0.30;;
39896;SDS011;25567;48.276;14.242;2023-03-14T15:05:22;0.38;;;0.20;;
39896;SDS011;25567;48.276;14.242;2023-03-14T15:07:50;1.83;;;0.30;;
39896;SDS011;25567;48.276;14.242;2023-03-14T15:10:18;1.58;;;0.28;;
39896;SDS011;25567;48.276;14.242;2023-03-14T15:12:47;1.08;;;0.30;;
39896;SDS011;25567;48.276;14.242;2023-03-14T15:15:14;0.57;;;0.15;;
39896;SDS011;25567;48.276;14.242;2023-03-14T15:17:41;0.43;;;0.22;;
39896;SDS011;25567;48.276;14.242;2023-03-14T15:20:11;0.52;;;0.10;;
39896;SDS011;25567;48.276;14.242;2023-03-14T15:22:40;2.15;;;0.20;;
39896;SDS011;25567;48.276;14.242;2023-03-14T15:25:07;0.77;;;0.35;;
39896;SDS011;25567;48.276;14.242;2023-03-14T15:27:52;1.67;;;0.20;;
39896;SDS011;25567;48.276;14.242;2023-03-14T15:30:19;1.48;;;0.30;;
39896;SDS011;25567;48.276;14.242;2023-03-14T15:32:45;0.77;;;0.35;;
39896;SDS011;25567;48.276;14.242;2023-03-14T15:35:13;0.75;;;0.30;;
39896;SDS011;25567;48.276;14.242;2023-03-14T15:37:43;1.40;;;0.30;;
39896;SDS011;25567;48.276;14.242;2023-03-14T15:40:11;1.42;;;0.30;;
39896;SDS011;25567;48.276;14.242;2023-03-14T15:42:40;1.23;;;0.40;;
39896;SDS011;25567;48.276;14.242;2023-03-14T15:45:07;2.90;;;0.60;;
39896;SDS011;25567;48.276;14.242;2023-03-14T15:47:35;1.95;;;0.40;;
39896;SDS011;25567;48.276;14.242;2023-03-14T15:50:02;0.45;;;0.30;;
39896;SDS011;25567;48.276;14.242;2023-03-14T15:52:29;1.35;;;0.47;;
39896;SDS011;25567;48.276;14.242;2023-03-14T15:54:56;0.90;;;0.30;;
39896;SDS011;25567;48.276;14.242;2023-03-14T15:57:23;2.95;;;0.30;;
39896;SDS011;25567;48.276;14.242;2023-03-14T15:59:51;5.68;;;0.73;;